Castlegar, Canada
Current Conditions -  °F | °C
As of 7:00 PM on Monday 20 Oct 2014 (Local Time) from CYCG Reporting Station
Rain Showers Rain Showers  
Wind Chill: 55°   Ceiling: 6000
Heat Index: 55°   Visibility: 15mi
Dew Point: 50°   Wind: 12mph
Humidity: 82%   Direction: 360°N
Pressure: 29.7"   Gusts: NA
Location:  49.3°N, 117.65°W
Report Text: CYCG 210200Z 36010KT 15SM -SHRA BKN060 OVC090 13/10 A2970 RMK SC6AC2 SLP062 DENSITY ALT 2000FT
Loading
Personal Weather Stations






























Interactive Weather Map
Tropical Storm Tracking
New forecast layout! Learn more

10-Day Weather Forecast

Advertisements
Track Severe Weather on mobile